Sao Manuel, Brazil
Current Conditions -  °F | °C
As of 7:40 PM on Thursday 25 Dec 2014 (Local Time) from SBBU Reporting Station
Light Rain Light Rain  
Wind Chill: 73°   Ceiling: Unl
Heat Index: 73°   Visibility: 6mi
Dew Point: 72°   Wind: 8mph
Humidity: 94%   Direction: 250°WSW
Pressure: 30.03"   Gusts: NA
Location:  22.73°S, 48.57°W
Report Text: SBBU 252140Z 25007KT 9999 -RA FEW033 SCT075 23/22 Q1017 RETS
Loading
Personal Weather Stations






























Interactive Weather Map New forecast layout! Learn more

10-Day Weather Forecast

Advertisements
Track Severe Weather on mobile